Time;durP1;ratioP1;P1;durP2;ratioP2;P2;SDS_P1;SDS_P2;PMS_P1;PMS_P2;Temp;Humidity;BMP_temperature;BMP_pressure;BME280_temperature;BME280_humidity;BME280_pressure;Samples;Min_cycle;Max_cycle;Signal;HPM_P1;HPM_P2
2023/09/27 00:00:01;;;;;;;2.08;1.55;;;17.40;77.00;;;;;;5067125;28;20029;-65
2023/09/27 00:02:27;;;;;;;3.13;1.70;;;17.50;77.20;;;;;;5068021;28;20036;-65
2023/09/27 00:04:53;;;;;;;2.55;1.52;;;17.40;77.20;;;;;;5067213;28;20032;-64
2023/09/27 00:07:19;;;;;;;2.58;2.05;;;17.50;77.40;;;;;;5066478;28;20024;-67
2023/09/27 00:09:44;;;;;;;4.00;1.95;;;17.50;77.40;;;;;;5050362;28;20028;-68
2023/09/27 00:12:10;;;;;;;2.80;2.00;;;17.50;77.50;;;;;;5066316;28;20039;-68
2023/09/27 00:14:36;;;;;;;1.40;1.30;;;17.60;77.70;;;;;;5068280;28;20021;-68
2023/09/27 00:17:01;;;;;;;1.90;1.48;;;17.60;77.70;;;;;;5049449;28;20524;-68
2023/09/27 00:19:27;;;;;;;3.40;2.20;;;17.60;77.70;;;;;;5035889;28;20348;-67
2023/09/27 00:21:53;;;;;;;2.67;1.52;;;17.70;77.90;;;;;;5065432;28;20482;-68
2023/09/27 00:24:19;;;;;;;2.05;1.50;;;17.70;78.10;;;;;;5061614;28;20032;-67
2023/09/27 00:26:44;;;;;;;2.70;1.70;;;17.70;78.00;;;;;;5049260;28;20028;-68
2023/09/27 00:29:10;;;;;;;1.70;1.40;;;17.80;78.10;;;;;;5068062;28;20415;-68
2023/09/27 00:31:35;;;;;;;2.60;1.52;;;17.80;78.00;;;;;;5068041;28;20028;-68
2023/09/27 00:34:01;;;;;;;2.70;1.67;;;17.80;78.20;;;;;;5065773;28;20021;-68
2023/09/27 00:36:27;;;;;;;3.17;1.40;;;17.90;78.30;;;;;;5065038;28;20059;-65
2023/09/27 00:38:53;;;;;;;2.17;1.52;;;17.90;78.30;;;;;;5066108;28;20048;-65
2023/09/27 00:41:18;;;;;;;2.80;1.25;;;17.90;78.30;;;;;;5063170;28;20585;-65
2023/09/27 00:43:44;;;;;;;1.85;1.58;;;17.90;78.30;;;;;;5049418;28;20032;-65
2023/09/27 00:46:14;;;;;;;2.45;1.90;;;17.90;78.20;;;;;;5065687;28;20036;-65
2023/09/27 00:48:40;;;;;;;1.73;1.50;;;18.00;78.40;;;;;;5067316;28;20029;-66
2023/09/27 00:51:06;;;;;;;1.73;1.30;;;18.00;78.50;;;;;;5066221;28;20098;-65
2023/09/27 00:53:34;;;;;;;1.88;1.65;;;18.00;78.40;;;;;;5062361;28;20032;-65
2023/09/27 00:56:01;;;;;;;2.33;1.73;;;18.00;78.50;;;;;;5067473;28;20024;-65
2023/09/27 00:58:32;;;;;;;3.17;1.98;;;18.00;78.60;;;;;;5064836;28;20036;-64
2023/09/27 01:00:59;;;;;;;2.10;1.40;;;18.00;78.60;;;;;;5047149;28;20033;-68
2023/09/27 01:03:25;;;;;;;4.78;1.88;;;18.00;78.60;;;;;;5064847;28;20445;-66
2023/09/27 01:05:51;;;;;;;2.20;1.60;;;18.00;78.60;;;;;;5067021;28;20024;-66
2023/09/27 01:08:17;;;;;;;2.10;1.45;;;17.90;78.50;;;;;;5066975;28;20040;-66
2023/09/27 01:10:45;;;;;;;5.72;1.98;;;17.90;78.60;;;;;;5063545;28;20115;-65
2023/09/27 01:13:11;;;;;;;5.13;2.10;;;17.90;78.50;;;;;;5062473;28;20070;-66
2023/09/27 01:15:37;;;;;;;2.13;1.65;;;17.80;78.60;;;;;;5062589;28;20376;-66
2023/09/27 01:18:03;;;;;;;3.17;2.17;;;17.70;78.70;;;;;;5065676;28;20112;-65
2023/09/27 01:20:30;;;;;;;2.42;1.40;;;17.70;78.70;;;;;;5063529;28;20480;-65
2023/09/27 01:23:02;;;;;;;2.72;2.25;;;17.70;78.70;;;;;;5066875;28;20020;-68
2023/09/27 01:25:30;;;;;;;2.92;1.70;;;17.60;78.70;;;;;;5071105;28;20024;-68
2023/09/27 01:28:00;;;;;;;1.38;1.27;;;17.60;78.70;;;;;;5065564;28;20016;-69
2023/09/27 01:30:32;;;;;;;2.00;1.40;;;17.60;78.70;;;;;;5049291;28;20402;-68
2023/09/27 01:32:59;;;;;;;2.03;1.40;;;17.50;78.60;;;;;;5050869;28;20020;-66
2023/09/27 01:35:25;;;;;;;1.67;1.45;;;17.50;78.50;;;;;;5063364;28;20630;-68
2023/09/27 01:37:50;;;;;;;1.90;1.52;;;17.50;78.60;;;;;;5063360;28;20053;-68
2023/09/27 01:40:18;;;;;;;2.95;1.60;;;17.40;78.50;;;;;;5060803;28;20039;-66
2023/09/27 01:42:44;;;;;;;2.00;1.50;;;17.40;78.50;;;;;;5066489;28;20029;-66
2023/09/27 01:45:13;;;;;;;2.55;2.05;;;17.40;78.50;;;;;;5046605;28;20376;-66
2023/09/27 01:47:39;;;;;;;3.50;1.90;;;17.40;78.50;;;;;;5066413;28;20036;-66
2023/09/27 01:50:07;;;;;;;3.65;2.33;;;17.30;78.50;;;;;;5070233;28;20074;-66
2023/09/27 01:52:33;;;;;;;1.92;1.52;;;17.30;78.40;;;;;;5066480;28;20029;-66
2023/09/27 01:54:59;;;;;;;4.03;1.92;;;17.30;78.50;;;;;;5069188;28;20029;-66
2023/09/27 01:57:24;;;;;;;5.25;2.65;;;17.30;78.50;;;;;;5063497;28;20416;-66
2023/09/27 01:59:50;;;;;;;2.13;1.60;;;17.30;78.50;;;;;;5070001;28;20025;-65
2023/09/27 02:02:16;;;;;;;2.15;1.52;;;17.20;78.30;;;;;;5048373;28;20364;-66
2023/09/27 02:04:41;;;;;;;4.63;1.90;;;17.20;78.30;;;;;;5063971;28;20037;-66
2023/09/27 02:07:07;;;;;;;1.55;1.45;;;17.20;78.30;;;;;;5067939;28;20124;-65
2023/09/27 02:09:33;;;;;;;3.15;1.88;;;17.10;78.20;;;;;;5069538;28;20028;-66
2023/09/27 02:11:59;;;;;;;2.00;1.55;;;17.10;78.30;;;;;;5070685;28;20371;-66
2023/09/27 02:14:24;;;;;;;2.90;1.83;;;17.10;78.20;;;;;;5053160;28;20052;-66
2023/09/27 02:16:51;;;;;;;2.40;1.33;;;17.10;78.30;;;;;;5067788;28;20028;-66
2023/09/27 02:19:17;;;;;;;4.22;2.70;;;17.00;78.20;;;;;;5067855;28;20639;-65
2023/09/27 02:21:42;;;;;;;3.97;3.00;;;17.00;78.20;;;;;;5051445;28;20521;-66
2023/09/27 02:24:09;;;;;;;2.30;1.95;;;17.00;78.30;;;;;;5052296;28;20296;-66
2023/09/27 02:26:36;;;;;;;3.28;2.15;;;16.90;78.30;;;;;;5069842;28;20043;-66
2023/09/27 02:29:02;;;;;;;1.88;1.73;;;16.90;78.40;;;;;;5067753;28;20164;-66
2023/09/27 02:31:27;;;;;;;2.28;1.90;;;16.90;78.30;;;;;;5069414;28;20123;-66
2023/09/27 02:33:53;;;;;;;3.97;1.70;;;16.90;78.30;;;;;;5067194;28;20554;-66
2023/09/27 02:36:19;;;;;;;2.22;1.60;;;16.90;78.30;;;;;;5067510;28;20118;-66
2023/09/27 02:38:44;;;;;;;5.15;1.90;;;16.80;78.30;;;;;;5069572;28;20025;-69
2023/09/27 02:41:10;;;;;;;2.60;1.88;;;16.80;78.30;;;;;;5067657;28;20036;-68
2023/09/27 02:43:36;;;;;;;3.95;2.10;;;16.80;78.30;;;;;;5067603;28;20123;-68
2023/09/27 02:46:01;;;;;;;2.63;2.13;;;16.70;78.30;;;;;;5069152;28;20056;-68
2023/09/27 02:48:29;;;;;;;1.48;1.38;;;16.70;78.30;;;;;;5067635;28;20447;-69
2023/09/27 02:50:55;;;;;;;3.38;2.20;;;16.70;78.20;;;;;;5068979;28;20041;-68
2023/09/27 02:53:21;;;;;;;3.53;2.10;;;16.70;78.20;;;;;;5063784;28;20024;-66
2023/09/27 02:55:47;;;;;;;2.63;2.28;;;16.70;78.30;;;;;;5052671;28;20097;-66
2023/09/27 02:58:13;;;;;;;3.78;2.63;;;16.70;78.40;;;;;;5067019;28;20436;-66
2023/09/27 03:00:40;;;;;;;2.63;2.25;;;16.60;78.30;;;;;;5069748;28;20751;-66
2023/09/27 03:03:07;;;;;;;3.10;2.35;;;16.60;78.50;;;;;;5066551;28;20028;-68
2023/09/27 03:05:36;;;;;;;3.75;2.28;;;16.50;78.50;;;;;;5062651;28;20020;-68
2023/09/27 03:08:03;;;;;;;3.00;1.90;;;16.50;78.50;;;;;;5067934;28;20025;-68
2023/09/27 03:10:29;;;;;;;2.97;2.08;;;16.50;78.50;;;;;;5066993;28;20032;-69
2023/09/27 03:12:55;;;;;;;4.22;2.28;;;16.50;78.50;;;;;;5068077;28;20021;-69
2023/09/27 03:15:21;;;;;;;3.35;2.17;;;16.50;78.50;;;;;;5069577;28;20379;-68
2023/09/27 03:17:48;;;;;;;3.58;2.45;;;16.50;78.50;;;;;;5067998;28;20016;-69
2023/09/27 03:20:16;;;;;;;2.05;1.75;;;16.50;78.50;;;;;;5069899;28;20023;-69
2023/09/27 03:22:50;;;;;;;2.95;1.95;;;16.50;78.40;;;;;;5066924;28;20024;-69
2023/09/27 03:25:19;;;;;;;2.40;1.75;;;16.50;78.40;;;;;;5067774;28;20033;-69
2023/09/27 03:27:45;;;;;;;3.10;2.40;;;16.40;78.30;;;;;;5067863;28;20052;-69
2023/09/27 03:30:11;;;;;;;2.70;2.50;;;16.40;78.30;;;;;;5047404;28;20029;-68
2023/09/27 03:32:37;;;;;;;2.97;2.15;;;16.40;78.40;;;;;;5068578;28;20036;-68
2023/09/27 03:35:03;;;;;;;3.55;2.45;;;16.40;78.40;;;;;;5067038;28;20434;-65
2023/09/27 03:37:30;;;;;;;5.50;2.85;;;16.40;78.50;;;;;;5066386;28;20395;-65
2023/09/27 03:39:56;;;;;;;2.95;1.95;;;16.30;78.50;;;;;;5065401;28;20032;-68
2023/09/27 03:42:23;;;;;;;3.85;3.00;;;16.30;78.50;;;;;;5067455;28;20024;-68
2023/09/27 03:44:49;;;;;;;2.20;1.98;;;16.40;78.50;;;;;;5063576;28;20853;-68
2023/09/27 03:47:15;;;;;;;4.75;2.83;;;16.30;78.40;;;;;;5063451;28;20116;-68
2023/09/27 03:49:41;;;;;;;3.33;2.58;;;16.30;78.50;;;;;;5062763;28;20063;-68
2023/09/27 03:52:08;;;;;;;4.03;2.72;;;16.30;78.50;;;;;;5049147;28;20252;-69
2023/09/27 03:54:33;;;;;;;3.78;2.60;;;16.30;79.10;;;;;;5037927;28;20028;-68
2023/09/27 03:56:59;;;;;;;4.22;2.70;;;16.20;78.40;;;;;;5063107;28;20089;-69
2023/09/27 03:59:25;;;;;;;4.82;2.75;;;16.30;78.50;;;;;;5065406;28;20028;-69
2023/09/27 04:01:51;;;;;;;7.43;3.42;;;16.20;78.40;;;;;;5065125;28;20059;-69
2023/09/27 04:04:17;;;;;;;2.40;2.05;;;16.20;78.50;;;;;;5065314;28;20041;-69
2023/09/27 04:06:44;;;;;;;5.25;2.70;;;16.30;78.50;;;;;;5068716;28;20037;-68
2023/09/27 04:09:10;;;;;;;3.92;2.60;;;16.20;78.40;;;;;;5067244;28;20039;-69
2023/09/27 04:11:36;;;;;;;5.50;2.60;;;16.20;78.40;;;;;;5066619;28;20025;-66
2023/09/27 04:14:05;;;;;;;3.65;2.35;;;16.20;78.50;;;;;;5058941;28;20088;-66
2023/09/27 04:16:32;;;;;;;3.25;2.78;;;16.20;78.50;;;;;;5056860;28;20037;-66
2023/09/27 04:18:58;;;;;;;4.55;3.65;;;16.10;78.40;;;;;;5064951;28;20713;-69
2023/09/27 04:21:25;;;;;;;5.32;2.55;;;16.10;78.40;;;;;;5068030;28;20044;-68
2023/09/27 04:23:59;;;;;;;3.17;2.47;;;16.20;78.70;;;;;;5046556;28;20020;-69
2023/09/27 04:26:24;;;;;;;3.55;2.65;;;16.10;78.60;;;;;;5061104;28;20036;-66
2023/09/27 04:28:54;;;;;;;5.13;3.47;;;16.10;78.70;;;;;;5049929;28;20376;-66
2023/09/27 04:31:20;;;;;;;7.22;2.55;;;16.10;78.70;;;;;;5068352;28;20033;-68
2023/09/27 04:33:47;;;;;;;6.63;2.72;;;16.10;78.70;;;;;;5064007;28;20025;-68
2023/09/27 04:36:17;;;;;;;3.80;2.58;;;16.10;78.80;;;;;;5058250;28;20446;-66
2023/09/27 04:38:45;;;;;;;4.03;2.90;;;16.10;78.90;;;;;;5064965;28;20028;-66
2023/09/27 04:41:15;;;;;;;3.67;2.50;;;16.10;78.90;;;;;;5061674;28;20036;-69
2023/09/27 04:43:44;;;;;;;5.63;2.80;;;16.10;78.80;;;;;;5060592;28;20025;-66
2023/09/27 04:46:17;;;;;;;5.07;2.75;;;16.10;78.80;;;;;;5048397;28;20108;-65
2023/09/27 04:48:44;;;;;;;8.70;3.00;;;16.10;78.80;;;;;;5064611;28;20036;-66
2023/09/27 04:51:09;;;;;;;3.40;2.08;;;16.10;78.80;;;;;;5067372;28;20044;-65
2023/09/27 04:53:37;;;;;;;3.92;2.65;;;16.00;78.80;;;;;;5067728;28;20074;-66
2023/09/27 04:56:06;;;;;;;3.53;2.75;;;16.00;78.80;;;;;;5072261;28;20029;-66
2023/09/27 04:58:33;;;;;;;3.58;2.22;;;16.10;78.90;;;;;;5069263;28;20086;-66
2023/09/27 05:00:59;;;;;;;5.65;2.97;;;16.00;78.80;;;;;;5071171;28;20544;-66
2023/09/27 05:03:26;;;;;;;4.15;2.10;;;16.10;78.80;;;;;;5068923;28;20029;-69
2023/09/27 05:05:51;;;;;;;3.15;2.22;;;16.00;78.70;;;;;;5072638;28;20020;-67
2023/09/27 05:08:17;;;;;;;3.70;2.67;;;16.00;78.70;;;;;;5069697;28;20495;-68
2023/09/27 05:10:43;;;;;;;5.15;3.25;;;16.00;78.70;;;;;;5046837;28;20044;-66
2023/09/27 05:13:09;;;;;;;3.47;1.85;;;15.90;78.70;;;;;;5068312;28;20067;-66
2023/09/27 05:15:34;;;;;;;3.50;2.70;;;15.90;78.70;;;;;;5072418;28;20040;-66
2023/09/27 05:18:00;;;;;;;2.85;1.98;;;15.90;78.70;;;;;;5068013;28;20033;-66
2023/09/27 05:20:26;;;;;;;4.22;2.30;;;15.90;78.60;;;;;;5060541;28;20026;-66
2023/09/27 05:22:52;;;;;;;3.47;2.70;;;15.90;78.60;;;;;;5049850;28;20021;-66
2023/09/27 05:25:18;;;;;;;3.28;2.42;;;15.90;78.60;;;;;;5071384;28;20047;-66
2023/09/27 05:27:43;;;;;;;3.85;2.40;;;15.90;78.80;;;;;;5051760;28;20402;-67
2023/09/27 05:30:13;;;;;;;5.45;2.90;;;15.90;78.80;;;;;;5070173;28;20116;-66
2023/09/27 05:32:40;;;;;;;2.70;2.20;;;15.90;78.90;;;;;;5066819;28;20033;-66
2023/09/27 05:35:07;;;;;;;2.83;2.03;;;15.90;78.80;;;;;;5061701;28;20262;-66
2023/09/27 05:37:32;;;;;;;4.05;2.47;;;15.90;78.80;;;;;;5065662;28;20044;-66
2023/09/27 05:39:58;;;;;;;3.85;2.45;;;15.90;78.90;;;;;;5048730;28;20027;-66
2023/09/27 05:42:24;;;;;;;3.10;2.10;;;15.90;79.00;;;;;;5068570;28;20050;-66
2023/09/27 05:44:50;;;;;;;3.60;2.25;;;15.90;78.90;;;;;;5069037;28;20029;-66
2023/09/27 05:47:16;;;;;;;5.40;3.45;;;15.90;79.10;;;;;;5066969;28;20036;-66
2023/09/27 05:49:44;;;;;;;2.78;2.50;;;15.90;79.20;;;;;;5069655;28;20522;-67
2023/09/27 05:52:12;;;;;;;3.53;2.58;;;15.90;79.30;;;;;;5048882;28;20036;-66
2023/09/27 05:54:41;;;;;;;2.70;1.85;;;15.90;79.20;;;;;;5065590;28;20031;-66
2023/09/27 05:57:07;;;;;;;3.20;2.28;;;15.90;79.20;;;;;;5069780;28;20043;-68
2023/09/27 05:59:40;;;;;;;2.55;1.83;;;16.00;79.20;;;;;;5051475;28;20040;-66
2023/09/27 06:02:07;;;;;;;6.25;2.40;;;16.00;79.30;;;;;;5068474;28;20020;-70
2023/09/27 06:04:33;;;;;;;3.25;2.25;;;16.00;79.80;;;;;;5069001;28;20032;-68
2023/09/27 06:06:59;;;;;;;3.17;2.25;;;16.10;79.20;;;;;;5068344;28;20582;-67
2023/09/27 06:09:25;;;;;;;4.53;2.67;;;16.10;79.40;;;;;;5065868;28;20112;-68
2023/09/27 06:11:51;;;;;;;5.28;2.63;;;16.10;79.30;;;;;;5069268;28;20391;-68
2023/09/27 06:14:17;;;;;;;3.58;2.53;;;16.20;79.40;;;;;;5069392;28;20039;-68
2023/09/27 06:16:45;;;;;;;3.85;3.00;;;16.20;79.30;;;;;;5051531;28;20040;-67
2023/09/27 06:19:11;;;;;;;4.43;2.90;;;16.30;79.40;;;;;;5065387;28;20493;-67
2023/09/27 06:21:37;;;;;;;4.05;2.40;;;16.30;79.50;;;;;;5068215;28;20017;-67
2023/09/27 06:24:05;;;;;;;2.22;2.03;;;16.40;79.60;;;;;;5062605;28;20399;-67
2023/09/27 06:26:30;;;;;;;4.13;2.15;;;16.40;79.70;;;;;;5068846;28;20034;-67
2023/09/27 06:28:57;;;;;;;3.53;2.00;;;16.40;79.60;;;;;;5058139;28;20040;-67
2023/09/27 06:31:23;;;;;;;3.20;2.47;;;16.50;79.60;;;;;;5065737;28;20032;-66
2023/09/27 06:33:49;;;;;;;4.95;3.03;;;16.50;79.60;;;;;;5069761;28;20051;-66
2023/09/27 06:36:16;;;;;;;4.03;3.10;;;16.50;79.80;;;;;;5068007;28;20107;-67
2023/09/27 06:38:42;;;;;;;4.28;3.03;;;16.50;80.00;;;;;;5064144;28;20040;-65
2023/09/27 06:41:08;;;;;;;3.35;2.75;;;16.60;80.20;;;;;;5069715;28;20039;-66
2023/09/27 06:43:34;;;;;;;4.93;2.85;;;16.60;80.30;;;;;;5061834;28;20111;-67
2023/09/27 06:46:07;;;;;;;3.67;2.40;;;16.60;80.20;;;;;;5070602;28;20544;-66
2023/09/27 06:48:33;;;;;;;3.15;2.17;;;16.70;80.10;;;;;;5065624;28;20064;-66
2023/09/27 06:50:58;;;;;;;3.58;2.22;;;16.80;80.00;;;;;;5049174;28;20537;-67
2023/09/27 06:53:24;;;;;;;4.43;2.72;;;16.90;79.80;;;;;;5049095;28;20515;-65
2023/09/27 06:55:53;;;;;;;4.13;2.95;;;17.00;79.80;;;;;;5068507;28;20029;-71
2023/09/27 06:58:23;;;;;;;3.63;2.30;;;17.00;79.70;;;;;;5064377;28;20029;-68
2023/09/27 07:00:51;;;;;;;3.75;2.33;;;17.10;79.70;;;;;;5066731;28;20047;-67
2023/09/27 07:03:19;;;;;;;4.72;3.28;;;17.20;79.60;;;;;;5032051;28;20037;-67
2023/09/27 07:05:46;;;;;;;5.50;3.20;;;17.30;79.60;;;;;;5056313;28;20560;-68
2023/09/27 07:08:13;;;;;;;5.45;3.55;;;17.40;79.70;;;;;;5055677;28;20032;-67
2023/09/27 07:10:38;;;;;;;3.42;2.55;;;17.50;79.70;;;;;;5047449;28;20425;-68
2023/09/27 07:13:04;;;;;;;13.32;4.20;;;17.60;79.70;;;;;;5035011;28;20119;-68
2023/09/27 07:15:31;;;;;;;3.70;3.17;;;17.70;79.60;;;;;;5053466;28;20032;-67
2023/09/27 07:17:57;;;;;;;3.80;3.28;;;17.80;79.50;;;;;;5056642;28;20557;-67
2023/09/27 07:20:33;;;;;;;3.70;2.58;;;17.80;79.40;;;;;;5059450;28;21307;-68
2023/09/27 07:22:59;;;;;;;4.28;3.05;;;17.90;79.40;;;;;;5059846;28;20029;-68
2023/09/27 07:25:25;;;;;;;5.35;3.30;;;17.90;79.30;;;;;;5058237;28;20035;-68
2023/09/27 07:27:54;;;;;;;5.43;3.15;;;18.00;79.40;;;;;;5055534;28;20020;-68
2023/09/27 07:30:26;;;;;;;2.67;2.20;;;18.00;79.30;;;;;;5059397;28;20153;-68
2023/09/27 07:32:53;;;;;;;3.33;2.78;;;18.10;79.30;;;;;;5057238;28;20051;-68
2023/09/27 07:35:21;;;;;;;3.67;2.75;;;18.10;79.30;;;;;;5056440;28;20044;-68
2023/09/27 07:37:47;;;;;;;5.53;3.10;;;18.10;79.40;;;;;;5055869;28;20033;-68
2023/09/27 07:40:14;;;;;;;4.50;3.42;;;18.20;79.30;;;;;;5055951;28;20107;-68
2023/09/27 07:42:42;;;;;;;5.35;3.33;;;18.20;79.30;;;;;;5055041;28;20041;-68
2023/09/27 07:45:22;;;;;;;6.30;3.55;;;18.20;79.30;;;;;;5057585;28;20491;-69
2023/09/27 07:47:53;;;;;;;4.55;2.53;;;18.20;79.30;;;;;;5057437;28;20086;-66
2023/09/27 07:50:21;;;;;;;4.30;2.75;;;18.20;79.40;;;;;;5053370;28;20359;-66
2023/09/27 07:52:47;;;;;;;4.20;2.67;;;18.20;79.40;;;;;;5057699;28;20028;-68
2023/09/27 07:55:14;;;;;;;5.68;3.50;;;18.30;79.40;;;;;;5059463;28;20021;-66
2023/09/27 07:57:43;;;;;;;4.20;3.13;;;18.30;79.60;;;;;;5042091;28;20055;-68
2023/09/27 08:00:15;;;;;;;3.53;2.97;;;18.30;79.70;;;;;;5035894;28;20059;-68
2023/09/27 08:02:42;;;;;;;2.72;2.35;;;18.40;79.80;;;;;;5058157;28;20028;-69
2023/09/27 08:05:11;;;;;;;4.20;2.78;;;18.50;79.60;;;;;;5040247;28;20407;-69
2023/09/27 08:07:40;;;;;;;7.38;2.95;;;18.60;79.50;;;;;;5058579;28;20037;-69
2023/09/27 08:10:10;;;;;;;4.05;2.72;;;18.60;79.40;;;;;;5046351;28;20036;-68
2023/09/27 08:12:38;;;;;;;5.30;2.50;;;18.70;79.30;;;;;;5040775;28;20064;-67
2023/09/27 08:15:05;;;;;;;6.57;3.50;;;18.70;79.30;;;;;;5057661;28;20063;-67
2023/09/27 08:17:32;;;;;;;3.45;2.65;;;18.70;79.30;;;;;;5056752;28;20036;-67
2023/09/27 08:19:58;;;;;;;5.63;3.25;;;18.80;79.30;;;;;;5057971;28;20050;-67
2023/09/27 08:22:24;;;;;;;4.85;3.00;;;18.80;79.20;;;;;;5040253;28;20408;-68
2023/09/27 08:24:50;;;;;;;4.97;3.17;;;18.90;79.10;;;;;;5057119;28;20119;-66
2023/09/27 08:27:19;;;;;;;5.18;3.00;;;19.00;79.00;;;;;;5042637;28;20032;-66
2023/09/27 08:29:45;;;;;;;2.97;2.47;;;19.10;78.90;;;;;;5060830;28;20481;-66
2023/09/27 08:32:12;;;;;;;4.40;3.17;;;19.20;78.60;;;;;;5057077;28;20039;-66
2023/09/27 08:34:38;;;;;;;4.32;2.83;;;19.30;78.60;;;;;;5055194;28;20474;-67
2023/09/27 08:37:04;;;;;;;7.18;4.30;;;19.30;78.50;;;;;;5054665;28;20455;-67
2023/09/27 08:39:30;;;;;;;5.82;3.60;;;19.40;78.30;;;;;;5054530;28;20036;-68
2023/09/27 08:41:58;;;;;;;4.95;3.22;;;19.40;78.30;;;;;;5040682;28;20086;-68
2023/09/27 08:44:24;;;;;;;6.45;3.75;;;19.50;78.20;;;;;;5056970;28;20025;-68
2023/09/27 08:46:54;;;;;;;4.50;3.75;;;19.50;78.00;;;;;;5057905;28;20032;-66
2023/09/27 08:49:20;;;;;;;5.65;3.45;;;19.60;77.80;;;;;;5053735;28;20095;-66
2023/09/27 08:51:48;;;;;;;3.42;2.78;;;19.70;77.70;;;;;;5044323;28;20729;-66
2023/09/27 08:54:18;;;;;;;3.60;2.78;;;19.80;77.60;;;;;;5023863;28;20479;-66
2023/09/27 08:56:48;;;;;;;3.33;2.50;;;19.90;77.40;;;;;;5040280;28;20029;-66
2023/09/27 08:59:15;;;;;;;4.28;2.70;;;20.10;76.90;;;;;;5056145;28;20029;-66
2023/09/27 09:01:43;;;;;;;2.92;2.50;;;20.30;76.60;;;;;;5060069;28;20039;-66
2023/09/27 09:04:11;;;;;;;2.60;2.33;;;20.40;76.30;;;;;;5039124;28;20037;-65
2023/09/27 09:06:37;;;;;;;3.90;2.78;;;20.50;76.20;;;;;;5056931;28;20013;-65
2023/09/27 09:09:12;;;;;;;2.95;2.33;;;20.70;76.00;;;;;;5060213;28;20375;-65
2023/09/27 09:11:47;;;;;;;3.40;2.72;;;20.90;75.70;;;;;;5057710;28;20032;-65
2023/09/27 09:14:17;;;;;;;3.95;2.45;;;21.10;75.30;;;;;;5062077;28;20071;-65
2023/09/27 09:16:50;;;;;;;5.13;3.55;;;21.30;75.10;;;;;;5063217;28;20056;-65
2023/09/27 09:19:23;;;;;;;2.80;2.50;;;21.30;75.00;;;;;;5058693;28;20028;-65
2023/09/27 09:22:12;;;;;;;3.85;2.40;;;21.50;75.00;;;;;;5061422;28;20817;-65
2023/09/27 09:24:43;;;;;;;3.55;1.95;;;21.60;74.70;;;;;;5056001;28;20040;-65
2023/09/27 09:27:16;;;;;;;2.20;1.92;;;21.70;74.50;;;;;;5058646;28;20033;-65
2023/09/27 09:29:45;;;;;;;2.35;2.15;;;21.90;74.50;;;;;;5058827;28;20048;-66
2023/09/27 09:32:30;;;;;;;2.45;1.73;;;22.10;74.20;;;;;;5038621;28;20029;-66
2023/09/27 09:34:56;;;;;;;5.47;2.25;;;22.40;73.80;;;;;;5054741;28;20468;-66
2023/09/27 09:37:29;;;;;;;2.53;1.98;;;22.50;72.90;;;;;;5058992;28;20045;-65
2023/09/27 09:40:14;;;;;;;3.90;2.58;;;22.70;72.60;;;;;;5066717;28;20526;-66
2023/09/27 09:42:41;;;;;;;2.47;2.28;;;22.70;72.40;;;;;;5062798;28;20037;-65
2023/09/27 09:45:10;;;;;;;5.65;2.58;;;22.70;72.50;;;;;;5058498;28;20021;-65
2023/09/27 09:47:38;;;;;;;4.05;2.55;;;22.70;72.30;;;;;;5061057;28;20105;-65
2023/09/27 09:50:06;;;;;;;3.22;2.33;;;22.80;72.30;;;;;;5037314;28;20467;-65
2023/09/27 09:52:35;;;;;;;3.60;2.25;;;22.80;72.20;;;;;;5058319;28;20044;-65
2023/09/27 09:55:03;;;;;;;3.42;1.60;;;22.70;72.40;;;;;;5061565;28;20119;-65
2023/09/27 09:57:36;;;;;;;2.72;1.98;;;22.70;72.50;;;;;;5063537;28;20087;-65
2023/09/27 10:00:12;;;;;;;2.85;2.13;;;22.70;72.50;;;;;;5063961;28;20028;-65
2023/09/27 10:02:51;;;;;;;2.22;1.77;;;22.80;72.40;;;;;;5061505;28;20452;-65
2023/09/27 10:05:19;;;;;;;2.92;2.38;;;22.80;72.40;;;;;;5066284;28;20447;-66
2023/09/27 10:07:46;;;;;;;4.00;2.35;;;22.80;72.40;;;;;;5060364;28;20032;-66
2023/09/27 10:10:13;;;;;;;2.38;1.60;;;22.70;72.40;;;;;;5057186;28;20037;-66
2023/09/27 10:12:41;;;;;;;2.35;2.08;;;22.70;72.50;;;;;;5035430;28;20043;-66
2023/09/27 10:15:08;;;;;;;2.85;2.10;;;22.90;72.60;;;;;;5061917;28;20506;-66
2023/09/27 10:17:35;;;;;;;2.40;2.03;;;23.00;72.10;;;;;;5061381;28;20040;-66
2023/09/27 10:20:17;;;;;;;3.10;2.20;;;23.10;71.80;;;;;;5061709;28;20483;-66
2023/09/27 10:22:46;;;;;;;;;;;23.30;71.80;;;;;;5058240;28;20047;-66
2023/09/27 10:25:24;;;;;;;2.13;1.83;;;23.50;71.30;;;;;;5060381;28;20298;-66
2023/09/27 10:27:59;;;;;;;3.58;1.88;;;23.70;70.90;;;;;;5061626;28;20033;-66
2023/09/27 10:30:25;;;;;;;1.83;1.60;;;24.00;70.40;;;;;;5057558;28;20404;-65
2023/09/27 10:33:29;;;;;;;3.42;1.30;;;24.00;70.00;;;;;;5044640;28;20040;-66
2023/09/27 10:36:01;;;;;;;2.80;2.03;;;24.10;69.90;;;;;;5055980;28;20451;-65
2023/09/27 10:38:49;;;;;;;2.72;1.92;;;24.30;69.90;;;;;;5060845;28;20095;-66
2023/09/27 10:41:33;;;;;;;2.10;1.50;;;24.30;68.70;;;;;;5059670;28;20029;-67
2023/09/27 10:44:02;;;;;;;1.25;1.15;;;24.10;68.90;;;;;;5062333;28;20032;-67
2023/09/27 10:46:48;;;;;;;1.00;0.90;;;24.00;69.20;;;;;;5058036;28;20074;-66
2023/09/27 10:49:27;;;;;;;1.45;1.20;;;24.00;69.40;;;;;;5065191;28;20052;-67
2023/09/27 10:51:53;;;;;;;2.42;1.48;;;24.00;69.60;;;;;;5059387;28;20044;-66
2023/09/27 10:54:23;;;;;;;1.00;0.90;;;24.00;69.50;;;;;;5060596;28;20067;-66
2023/09/27 10:56:53;;;;;;;3.78;1.58;;;24.10;69.50;;;;;;5060510;28;20131;-66
2023/09/27 10:59:37;;;;;;;1.27;1.13;;;24.20;69.30;;;;;;5065186;28;20043;-67
2023/09/27 11:02:03;;;;;;;2.53;1.65;;;24.20;69.10;;;;;;5061050;28;20064;-68
2023/09/27 11:04:30;;;;;;;2.10;1.23;;;24.20;69.00;;;;;;5047318;28;20040;-68
2023/09/27 11:06:56;;;;;;;2.15;1.55;;;24.20;69.00;;;;;;5043394;28;20115;-67
2023/09/27 11:09:23;;;;;;;2.10;1.30;;;24.20;69.10;;;;;;5064434;28;20503;-67
2023/09/27 11:11:54;;;;;;;2.88;2.15;;;24.20;69.00;;;;;;5061703;28;20028;-67
2023/09/27 11:14:31;;;;;;;3.20;1.65;;;24.30;68.60;;;;;;5063872;28;20069;-67
2023/09/27 11:17:16;;;;;;;1.17;1.00;;;24.40;68.30;;;;;;5039358;28;20033;-67
2023/09/27 11:19:41;;;;;;;1.80;1.40;;;24.50;68.20;;;;;;5060060;28;20025;-67
2023/09/27 11:22:07;;;;;;;1.20;1.10;;;24.50;68.10;;;;;;5061503;28;20043;-66
2023/09/27 11:24:40;;;;;;;1.63;1.38;;;24.60;68.10;;;;;;5052539;28;20051;-68
2023/09/27 11:27:09;;;;;;;2.15;1.60;;;24.60;68.10;;;;;;5056061;28;20040;-67
2023/09/27 11:29:35;;;;;;;1.65;1.55;;;24.50;67.90;;;;;;5038294;28;20127;-67
2023/09/27 11:32:01;;;;;;;1.42;1.33;;;24.50;67.90;;;;;;5042458;28;20064;-67
2023/09/27 11:34:27;;;;;;;1.48;1.10;;;24.50;68.00;;;;;;5060081;28;20053;-67
2023/09/27 11:36:57;;;;;;;2.50;1.45;;;24.40;68.30;;;;;;5055047;28;20070;-66
2023/09/27 11:39:28;;;;;;;2.60;1.63;;;24.30;68.30;;;;;;5061857;28;20040;-67
2023/09/27 11:42:00;;;;;;;1.73;1.50;;;24.10;68.40;;;;;;5059839;28;20369;-67
2023/09/27 11:44:27;;;;;;;1.30;1.23;;;24.10;68.30;;;;;;5063756;28;20479;-67
2023/09/27 11:47:09;;;;;;;1.10;1.00;;;24.10;68.30;;;;;;5056989;28;20048;-66
2023/09/27 11:49:35;;;;;;;1.65;1.10;;;24.20;68.40;;;;;;5035882;28;20060;-68
2023/09/27 11:52:02;;;;;;;1.77;1.67;;;24.20;68.20;;;;;;5023670;28;20094;-70
2023/09/27 11:54:29;;;;;;;1.58;1.23;;;24.40;68.00;;;;;;5065545;28;20066;-68
2023/09/27 11:56:55;;;;;;;3.25;1.67;;;24.70;67.70;;;;;;5062695;28;20029;-66
2023/09/27 11:59:20;;;;;;;3.92;1.85;;;25.10;66.80;;;;;;5058408;28;20082;-67
2023/09/27 12:01:46;;;;;;;2.58;1.63;;;25.50;66.00;;;;;;5057799;28;20032;-67
2023/09/27 12:04:12;;;;;;;2.72;1.60;;;25.90;64.70;;;;;;5061619;28;20585;-68
2023/09/27 12:06:37;;;;;;;1.80;1.70;;;26.10;64.30;;;;;;5058644;28;21337;-66
2023/09/27 12:09:05;;;;;;;3.35;1.35;;;26.40;64.00;;;;;;5062426;28;20387;-67
2023/09/27 12:11:31;;;;;;;1.35;1.25;;;26.60;63.60;;;;;;5058997;28;20045;-66
2023/09/27 12:13:57;;;;;;;4.53;2.35;;;26.80;63.20;;;;;;5058523;28;20032;-66
2023/09/27 12:16:23;;;;;;;1.67;1.00;;;27.00;62.60;;;;;;5036916;28;20052;-67
2023/09/27 12:18:49;;;;;;;3.20;1.75;;;27.20;62.10;;;;;;5028856;28;20028;-67
2023/09/27 12:21:15;;;;;;;6.95;2.03;;;27.30;61.50;;;;;;5059542;28;20391;-66
2023/09/27 12:23:43;;;;;;;1.63;1.52;;;27.50;60.60;;;;;;5059478;28;20028;-67
2023/09/27 12:26:09;;;;;;;13.10;2.15;;;27.60;60.80;;;;;;5058481;28;20028;-66
2023/09/27 12:28:36;;;;;;;1.75;1.50;;;27.80;59.80;;;;;;5051053;28;20036;-65
2023/09/27 12:31:07;;;;;;;1.85;1.38;;;27.80;59.00;;;;;;5059235;28;20079;-65
2023/09/27 12:33:35;;;;;;;1.73;1.38;;;27.80;59.30;;;;;;5045425;28;20126;-65
2023/09/27 12:36:01;;;;;;;2.63;2.00;;;27.70;59.20;;;;;;5058961;28;20025;-65
2023/09/27 12:38:27;;;;;;;3.75;2.00;;;27.70;59.10;;;;;;5057065;28;20041;-65
2023/09/27 12:40:54;;;;;;;2.85;1.40;;;27.70;58.50;;;;;;5058279;28;21003;-65
2023/09/27 12:43:20;;;;;;;1.80;1.52;;;27.60;58.70;;;;;;5057347;28;20790;-65
2023/09/27 12:45:46;;;;;;;1.80;1.70;;;27.40;58.80;;;;;;5038098;28;20026;-65
2023/09/27 12:48:11;;;;;;;1.65;1.45;;;27.30;59.20;;;;;;5045738;28;20044;-65
2023/09/27 12:50:41;;;;;;;2.22;1.90;;;27.30;59.30;;;;;;5052394;28;20033;-65